Time;durP1;ratioP1;P1;durP2;ratioP2;P2;SDS_P1;SDS_P2;PMS_P1;PMS_P2;Temp;Humidity;BMP_temperature;BMP_pressure;BME280_temperature;BME280_humidity;BME280_pressure;Samples;Min_cycle;Max_cycle;Signal;HPM_P1;HPM_P2
2023/06/18 00:00:56;;;;;;;14.10;10.02;;;;;;;17.56;78.61;100700.25;4894220;29;20524;-80
2023/06/18 00:03:22;;;;;;;11.35;10.02;;;;;;;17.56;77.94;100689.66;4885363;29;20104;-82
2023/06/18 00:05:49;;;;;;;11.27;9.32;;;;;;;17.56;78.54;100689.66;4892572;29;20041;-80
2023/06/18 00:08:15;;;;;;;12.10;10.77;;;;;;;17.53;79.63;100690.63;4908134;29;20059;-79
2023/06/18 00:10:44;;;;;;;11.27;10.13;;;;;;;17.50;79.71;100696.06;4891918;29;20123;-85
2023/06/18 00:13:10;;;;;;;13.93;10.93;;;;;;;17.46;80.01;100690.00;4872763;29;20048;-81
2023/06/18 00:15:37;;;;;;;13.57;11.50;;;;;;;17.43;79.95;100691.88;4893520;29;20123;-82
2023/06/18 00:18:03;;;;;;;14.05;12.15;;;;;;;17.35;80.86;100693.06;4888962;29;20386;-80
2023/06/18 00:20:32;;;;;;;15.88;12.15;;;;;;;17.33;80.24;100688.72;4905381;29;20044;-80
2023/06/18 00:22:59;;;;;;;14.18;11.77;;;;;;;17.28;80.81;100694.19;4876532;29;20427;-81
2023/06/18 00:25:26;;;;;;;13.82;12.18;;;;;;;17.26;80.59;100689.84;4894755;29;20124;-79
2023/06/18 00:27:53;;;;;;;12.43;10.68;;;;;;;17.22;80.71;100694.38;4875799;29;20472;-83
2023/06/18 00:30:19;;;;;;;13.10;10.95;;;;;;;17.26;80.42;100692.50;4890446;29;20051;-79
2023/06/18 00:32:46;;;;;;;10.27;9.27;;;;;;;17.29;80.29;100693.25;4894025;29;20048;-82
2023/06/18 00:35:14;;;;;;;13.98;11.57;;;;;;;17.34;80.12;100693.13;4897882;29;20048;-80
2023/06/18 00:37:43;;;;;;;14.60;10.70;;;;;;;17.39;79.83;100685.00;4892839;29;20041;-85
2023/06/18 00:40:12;;;;;;;14.93;12.55;;;;;;;17.41;79.75;100693.75;4890325;29;20139;-80
2023/06/18 00:42:40;;;;;;;12.00;10.63;;;;;;;17.48;79.12;100684.66;4898441;29;20449;-84
2023/06/18 00:45:09;;;;;;;12.90;10.73;;;;;;;17.52;78.87;100679.19;4906725;29;20063;-81
2023/06/18 00:47:37;;;;;;;12.13;10.85;;;;;;;17.51;78.76;100681.91;4899179;29;20049;-90
2023/06/18 00:50:06;;;;;;;13.63;11.25;;;;;;;17.50;79.26;100690.75;4875676;29;20552;-80
2023/06/18 00:52:38;;;;;;;13.20;10.52;;;;;;;17.49;78.94;100679.28;4897219;29;20072;-81
2023/06/18 00:55:05;;;;;;;15.40;11.48;;;;;;;17.45;79.35;100679.47;4895655;29;20044;-80
2023/06/18 00:57:32;;;;;;;17.05;12.32;;;;;;;17.39;79.62;100677.06;4883847;29;20689;-83
2023/06/18 00:59:59;;;;;;;12.73;11.32;;;;;;;17.35;79.67;100684.22;4894952;29;20063;-80
2023/06/18 01:02:26;;;;;;;13.23;11.82;;;;;;;17.27;80.26;100676.56;4896610;29;20048;-82
2023/06/18 01:04:59;;;;;;;13.63;11.10;;;;;;;17.23;81.01;100682.03;4879880;29;20560;-82
2023/06/18 01:07:27;;;;;;;12.57;10.73;;;;;;;17.18;81.66;100679.56;4915912;29;20052;-80
2023/06/18 01:09:54;;;;;;;11.57;10.40;;;;;;;17.18;81.44;100691.03;4894958;29;20047;-80
2023/06/18 01:12:27;;;;;;;11.07;9.98;;;;;;;17.21;81.69;100690.03;4888354;29;20044;-82
2023/06/18 01:14:57;;;;;;;12.50;10.77;;;;;;;17.23;81.57;100677.59;4891990;29;20132;-80
2023/06/18 01:17:29;;;;;;;9.65;8.68;;;;;;;17.22;81.42;100683.81;4878867;29;20606;-80
2023/06/18 01:20:08;;;;;;;10.65;9.55;;;;;;;17.18;81.87;100672.50;4892475;29;20056;-82
2023/06/18 01:22:52;;;;;;;10.80;9.70;;;;;;;17.16;82.71;100681.41;4897062;29;20048;-82
2023/06/18 01:25:19;;;;;;;12.85;10.43;;;;;;;17.10;82.13;100681.63;4903755;29;20104;-81
2023/06/18 01:27:47;;;;;;;14.20;10.73;;;;;;;17.07;82.65;100681.75;4891200;29;20456;-85
2023/06/18 01:30:15;;;;;;;11.05;9.95;;;;;;;17.00;82.82;100684.59;4895602;29;20048;-83
2023/06/18 01:32:41;;;;;;;11.60;10.55;;;;;;;16.98;83.33;100675.84;4874411;29;20042;-89
2023/06/18 01:35:14;;;;;;;11.18;9.93;;;;;;;17.02;83.65;100679.25;4889716;29;20041;-84
2023/06/18 01:38:12;;;;;;;11.93;9.65;;;;;;;17.06;83.18;100683.50;4887336;29;20033;-83
2023/06/18 01:40:54;;;;;;;13.13;11.55;;;;;;;17.07;83.59;100685.25;4891478;29;20052;-83
2023/06/18 01:43:30;;;;;;;11.68;10.55;;;;;;;17.05;83.70;100691.50;4886366;29;20105;-80
2023/06/18 01:46:10;;;;;;;14.75;11.40;;;;;;;17.00;84.17;100692.53;4894480;29;20053;-81
2023/06/18 01:48:42;;;;;;;16.55;11.18;;;;;;;16.98;83.75;100702.28;4890269;29;20051;-83
2023/06/18 01:51:09;;;;;;;12.75;11.45;;;;;;;16.93;84.42;100696.28;4891173;29;20119;-81
2023/06/18 01:53:38;;;;;;;13.23;11.10;;;;;;;16.87;84.34;100694.69;4891356;29;20115;-87
2023/06/18 01:56:09;;;;;;;12.23;10.60;;;;;;;16.78;85.00;100710.00;4891054;29;20391;-80
2023/06/18 01:58:36;;;;;;;13.32;11.30;;;;;;;16.70;85.60;100707.66;4894242;29;20115;-82
2023/06/18 02:01:03;;;;;;;12.05;10.88;;;;;;;16.63;86.22;100706.09;4898867;29;20052;-88
2023/06/18 02:03:30;;;;;;;13.88;11.98;;;;;;;16.54;86.59;100707.28;4891859;29;20053;-84
2023/06/18 02:05:56;;;;;;;14.48;12.68;;;;;;;16.48;87.26;100708.34;4894760;29;20113;-85
2023/06/18 02:08:23;;;;;;;12.93;10.98;;;;;;;16.40;87.36;100709.50;4897679;29;20053;-84
2023/06/18 02:10:49;;;;;;;14.90;12.32;;;;;;;16.34;87.82;100706.13;4887848;29;20044;-87
2023/06/18 02:13:16;;;;;;;14.90;12.90;;;;;;;16.34;88.61;100702.66;4893400;29;20032;-82
2023/06/18 02:15:42;;;;;;;16.17;12.60;;;;;;;16.35;88.87;100707.03;4888804;29;20043;-85
2023/06/18 02:18:11;;;;;;;14.90;13.30;;;;;;;16.40;88.77;100712.16;4892112;29;20043;-83
2023/06/18 02:20:42;;;;;;;15.02;13.35;;;;;;;16.40;89.17;100702.47;4890983;29;20049;-84
2023/06/18 02:23:09;;;;;;;17.92;13.00;;;;;;;16.43;88.82;100715.56;4884979;29;20115;-83
2023/06/18 02:25:36;;;;;;;15.52;13.45;;;;;;;16.44;88.48;100713.78;4888355;29;20104;-80
2023/06/18 02:28:04;;;;;;;18.77;13.45;;;;;;;16.43;88.65;100717.34;4875886;29;20063;-81
2023/06/18 02:30:31;;;;;;;13.25;11.65;;;;;;;16.43;88.46;100712.06;4902993;29;20064;-81
2023/06/18 02:32:59;;;;;;;14.25;12.52;;;;;;;16.43;88.67;100715.56;4877031;29;20048;-83
2023/06/18 02:35:26;;;;;;;13.88;12.35;;;;;;;16.42;88.74;100710.31;4891026;29;20075;-81
2023/06/18 02:37:53;;;;;;;15.13;12.07;;;;;;;16.41;88.83;100705.94;4873317;29;20555;-84
2023/06/18 02:40:20;;;;;;;15.02;12.32;;;;;;;16.41;88.76;100703.31;4872122;29;20369;-85
2023/06/18 02:42:50;;;;;;;17.40;13.02;;;;;;;16.43;89.10;100702.34;4889699;29;20051;-79
2023/06/18 02:45:19;;;;;;;18.20;13.82;;;;;;;16.43;89.32;100698.84;4877742;29;20053;-90
2023/06/18 02:47:47;;;;;;;15.10;13.50;;;;;;;16.40;89.30;100706.84;4901096;29;20100;-79
2023/06/18 02:50:15;;;;;;;15.77;13.45;;;;;;;16.36;89.85;100706.97;4895822;29;20036;-87
2023/06/18 02:52:42;;;;;;;15.15;12.80;;;;;;;16.35;89.95;100707.03;4895955;29;20075;-80
2023/06/18 02:55:11;;;;;;;15.02;13.07;;;;;;;16.34;89.56;100706.13;4899190;29;20096;-79
2023/06/18 02:57:39;;;;;;;19.20;12.77;;;;;;;16.34;89.73;100710.56;4897807;29;20041;-79
2023/06/18 03:00:10;;;;;;;14.68;13.18;;;;;;;16.32;89.79;100708.00;4879186;29;20054;-83
2023/06/18 03:02:37;;;;;;;16.42;12.98;;;;;;;16.32;90.13;100697.41;4892366;29;20079;-80
2023/06/18 03:05:04;;;;;;;15.93;14.05;;;;;;;16.29;90.15;100702.78;4895565;29;20066;-84
2023/06/18 03:07:31;;;;;;;18.02;14.38;;;;;;;16.23;90.33;100707.41;4893322;29;20140;-82
2023/06/18 03:09:58;;;;;;;19.10;13.05;;;;;;;16.14;90.57;100701.50;4897617;29;20040;-78
2023/06/18 03:12:25;;;;;;;19.05;15.05;;;;;;;16.09;91.74;100703.41;4895470;29;20109;-77
2023/06/18 03:14:51;;;;;;;18.08;14.38;;;;;;;16.03;92.35;100711.53;4884683;29;20032;-80
2023/06/18 03:17:18;;;;;;;16.55;13.02;;;;;;;16.00;92.35;100711.63;4895842;29;20130;-78
2023/06/18 03:19:44;;;;;;;15.00;12.73;;;;;;;15.93;92.52;100704.78;4894079;29;20055;-79
2023/06/18 03:22:11;;;;;;;21.65;15.95;;;;;;;15.91;93.16;100701.34;4896776;29;20044;-81
2023/06/18 03:24:38;;;;;;;15.77;13.02;;;;;;;15.88;93.07;100704.94;4901384;29;20082;-78
2023/06/18 03:27:06;;;;;;;19.10;14.32;;;;;;;15.87;93.32;100701.44;4894266;29;20135;-78
2023/06/18 03:29:34;;;;;;;15.32;13.35;;;;;;;15.83;93.53;100705.06;4903097;29;20096;-80
2023/06/18 03:32:01;;;;;;;16.50;14.02;;;;;;;15.80;93.64;100694.59;4893538;29;20039;-88
2023/06/18 03:34:28;;;;;;;20.85;14.50;;;;;;;15.81;94.03;100700.75;4892914;29;20056;-79
2023/06/18 03:36:55;;;;;;;19.05;14.82;;;;;;;15.81;93.32;100700.75;4894357;29;20140;-80
2023/06/18 03:39:21;;;;;;;15.40;12.07;;;;;;;15.81;93.30;100701.63;4893369;29;20051;-78
2023/06/18 03:41:47;;;;;;;17.50;13.40;;;;;;;15.81;93.89;100698.13;4894321;29;20055;-78
2023/06/18 03:44:14;;;;;;;16.25;13.95;;;;;;;15.79;93.68;100699.91;4885699;29;20044;-80
2023/06/18 03:46:40;;;;;;;14.98;13.38;;;;;;;15.77;93.81;100705.22;4889034;29;20043;-80
2023/06/18 03:49:07;;;;;;;13.95;12.45;;;;;;;15.78;93.83;100701.69;4896135;29;20043;-78
2023/06/18 03:51:35;;;;;;;18.55;13.27;;;;;;;15.83;94.14;100699.78;4873616;29;20151;-79
2023/06/18 03:54:02;;;;;;;17.58;14.48;;;;;;;15.87;94.09;100697.94;4875950;29;20044;-87
2023/06/18 03:56:28;;;;;;;18.08;14.13;;;;;;;15.93;94.20;100707.44;4893545;29;20785;-80
2023/06/18 03:58:57;;;;;;;16.33;12.93;;;;;;;16.01;93.59;100706.31;4887780;29;21160;-82
2023/06/18 04:01:27;;;;;;;15.45;13.40;;;;;;;16.08;93.16;100706.13;4875365;29;20053;-80
2023/06/18 04:03:53;;;;;;;15.27;13.68;;;;;;;16.14;92.94;100698.88;4889656;29;20080;-79
2023/06/18 04:06:20;;;;;;;18.45;13.02;;;;;;;16.20;92.28;100701.31;4892110;29;20055;-79
2023/06/18 04:08:46;;;;;;;14.35;12.00;;;;;;;16.26;92.52;100699.41;4895736;29;20056;-79
2023/06/18 04:11:13;;;;;;;16.38;14.10;;;;;;;16.30;92.73;100706.31;4888414;29;20060;-79
2023/06/18 04:13:40;;;;;;;18.83;13.18;;;;;;;16.36;92.20;100709.59;4896843;29;20036;-79
2023/06/18 04:16:07;;;;;;;14.85;13.25;;;;;;;16.42;91.92;100707.69;4891222;29;20044;-78
2023/06/18 04:18:34;;;;;;;19.15;13.57;;;;;;;16.44;91.42;100709.38;4896641;29;20147;-79
2023/06/18 04:21:00;;;;;;;14.15;11.82;;;;;;;16.50;91.62;100710.94;4891513;29;20544;-85
2023/06/18 04:23:27;;;;;;;15.48;13.00;;;;;;;16.54;91.58;100716.09;4885850;29;20037;-83
2023/06/18 04:25:54;;;;;;;15.10;12.10;;;;;;;16.61;91.33;100710.56;4891427;29;20079;-78
2023/06/18 04:28:22;;;;;;;14.57;11.70;;;;;;;16.67;91.16;100719.19;4879940;29;20052;-81
2023/06/18 04:30:49;;;;;;;15.65;13.85;;;;;;;16.75;91.15;100729.50;4884040;29;20463;-78
2023/06/18 04:33:15;;;;;;;13.25;11.95;;;;;;;16.82;91.06;100720.44;4894246;29;20048;-79
2023/06/18 04:35:42;;;;;;;16.25;12.68;;;;;;;16.90;90.94;100720.22;4886872;29;20063;-78
2023/06/18 04:38:10;;;;;;;17.63;12.90;;;;;;;16.95;90.66;100717.41;4893390;29;20040;-79
2023/06/18 04:40:37;;;;;;;14.38;11.90;;;;;;;16.99;91.01;100714.59;4892675;29;20047;-81
2023/06/18 04:43:03;;;;;;;13.27;11.95;;;;;;;17.01;90.45;100711.91;4893856;29;20104;-82
2023/06/18 04:45:30;;;;;;;14.18;12.68;;;;;;;17.05;90.23;100705.56;4895487;29;20360;-78
2023/06/18 04:47:56;;;;;;;16.17;13.35;;;;;;;17.06;90.17;100711.75;4879947;29;20399;-81
2023/06/18 04:50:23;;;;;;;13.48;12.00;;;;;;;17.08;90.27;100710.78;4884242;29;20084;-81
2023/06/18 04:52:50;;;;;;;17.08;13.35;;;;;;;17.05;90.27;100721.44;4889406;29;20028;-79
2023/06/18 04:55:16;;;;;;;12.65;11.38;;;;;;;17.09;90.34;100722.22;4905487;29;20056;-80
2023/06/18 04:57:43;;;;;;;13.48;11.90;;;;;;;17.14;89.79;100721.16;4897306;29;20041;-79
2023/06/18 05:00:10;;;;;;;13.15;11.65;;;;;;;17.23;89.75;100716.44;4895178;29;20044;-78
2023/06/18 05:02:37;;;;;;;16.02;14.38;;;;;;;17.26;89.29;100721.59;4898029;29;20036;-79
2023/06/18 05:05:04;;;;;;;16.55;14.75;;;;;;;17.29;89.24;100722.38;4896951;29;20104;-78
2023/06/18 05:07:30;;;;;;;17.17;14.00;;;;;;;17.35;89.32;100731.84;4908866;29;20045;-88
2023/06/18 05:09:57;;;;;;;14.60;12.13;;;;;;;17.40;89.50;100729.91;4881409;29;20048;-82
2023/06/18 05:12:23;;;;;;;16.92;13.73;;;;;;;17.45;89.02;100721.81;4897410;29;20105;-77
2023/06/18 05:14:50;;;;;;;15.52;12.48;;;;;;;17.48;88.65;100719.94;4889305;29;20044;-81
2023/06/18 05:17:17;;;;;;;15.50;13.20;;;;;;;17.52;88.94;100721.53;4898041;29;20048;-79
2023/06/18 05:19:43;;;;;;;13.77;12.32;;;;;;;17.61;88.51;100719.47;4896129;29;20063;-79
2023/06/18 05:22:10;;;;;;;15.77;13.50;;;;;;;17.68;88.46;100723.63;4895454;29;20048;-79
2023/06/18 05:24:39;;;;;;;15.40;13.75;;;;;;;17.75;88.17;100725.09;4893155;29;20072;-82
2023/06/18 05:27:06;;;;;;;15.88;12.52;;;;;;;17.80;87.54;100717.84;4888789;29;20044;-84
2023/06/18 05:29:33;;;;;;;13.57;12.23;;;;;;;17.88;87.23;100720.19;4896931;29;20043;-81
2023/06/18 05:31:59;;;;;;;13.52;12.13;;;;;;;17.93;86.72;100723.56;4895850;29;20037;-78
2023/06/18 05:34:26;;;;;;;15.52;13.43;;;;;;;17.97;86.34;100721.66;4912605;29;20059;-78
2023/06/18 05:36:52;;;;;;;15.50;12.63;;;;;;;18.00;86.06;100730.38;4898282;29;20040;-83
2023/06/18 05:39:19;;;;;;;11.20;10.10;;;;;;;18.06;86.21;100737.22;4894717;29;20085;-80
2023/06/18 05:41:45;;;;;;;14.07;12.27;;;;;;;18.10;86.03;100730.00;4890395;29;20048;-79
2023/06/18 05:44:12;;;;;;;15.55;12.35;;;;;;;18.14;85.69;100737.75;4868966;29;20101;-81
2023/06/18 05:46:38;;;;;;;12.13;10.93;;;;;;;18.19;85.66;100737.59;4890431;29;20048;-79
2023/06/18 05:49:05;;;;;;;11.68;10.32;;;;;;;18.25;85.91;100729.41;4904137;29;20096;-84
2023/06/18 05:51:31;;;;;;;15.93;11.88;;;;;;;18.32;85.43;100741.47;4887535;29;20040;-78
2023/06/18 05:53:58;;;;;;;14.52;12.35;;;;;;;18.37;84.90;100743.94;4895267;29;20040;-85
2023/06/18 05:56:27;;;;;;;11.43;10.27;;;;;;;18.37;84.65;100751.03;4890716;29;20036;-78
2023/06/18 05:58:54;;;;;;;13.75;12.27;;;;;;;18.39;84.68;100751.84;4891533;29;20139;-81
2023/06/18 06:01:20;;;;;;;16.55;11.20;;;;;;;18.45;83.72;100749.78;4896359;29;20147;-80
2023/06/18 06:03:47;;;;;;;14.35;10.85;;;;;;;18.45;83.10;100751.59;4885880;29;20041;-79
2023/06/18 06:06:14;;;;;;;14.07;10.60;;;;;;;18.50;82.57;100747.81;4892888;29;20055;-81
2023/06/18 06:08:40;;;;;;;13.00;10.77;;;;;;;18.52;81.61;100753.94;4899693;29;20115;-78
2023/06/18 06:11:07;;;;;;;11.85;10.65;;;;;;;18.57;81.33;100743.13;4898165;29;20044;-79
2023/06/18 06:13:33;;;;;;;11.85;10.65;;;;;;;18.59;81.77;100746.59;4886811;29;20044;-78
2023/06/18 06:16:00;;;;;;;11.27;10.13;;;;;;;18.61;81.57;100752.69;4895397;29;20044;-79
2023/06/18 06:18:26;;;;;;;12.20;10.85;;;;;;;18.66;81.33;100755.16;4878995;29;20123;-79
2023/06/18 06:20:53;;;;;;;14.60;11.90;;;;;;;18.65;81.54;100750.78;4894578;29;20056;-80
2023/06/18 06:23:20;;;;;;;12.65;11.25;;;;;;;18.65;81.67;100746.31;4893676;29;20079;-79
2023/06/18 06:25:46;;;;;;;11.80;10.52;;;;;;;18.72;81.53;100754.03;4894406;29;20044;-79
2023/06/18 06:28:13;;;;;;;12.18;10.80;;;;;;;18.73;81.03;100753.13;4892963;29;20049;-78
2023/06/18 06:30:39;;;;;;;12.35;10.02;;;;;;;18.81;81.01;100754.53;4878846;29;20041;-81
2023/06/18 06:33:05;;;;;;;11.70;10.30;;;;;;;18.94;80.76;100751.38;4894661;29;20036;-84
2023/06/18 06:35:32;;;;;;;10.88;9.77;;;;;;;19.01;79.65;100751.03;4895615;29;20048;-80
2023/06/18 06:37:58;;;;;;;12.85;9.82;;;;;;;19.10;79.28;100749.81;4895479;29;20464;-79
2023/06/18 06:40:25;;;;;;;12.10;9.52;;;;;;;19.20;78.87;100758.22;4885955;29;20052;-84
2023/06/18 06:42:51;;;;;;;14.65;10.35;;;;;;;19.32;77.84;100754.16;4888431;29;20045;-78
2023/06/18 06:45:18;;;;;;;12.95;10.57;;;;;;;19.31;77.38;100760.41;4895801;29;20150;-78
2023/06/18 06:47:46;;;;;;;10.55;9.15;;;;;;;19.40;77.34;100767.09;4891315;29;20040;-78
2023/06/18 06:50:12;;;;;;;16.80;10.18;;;;;;;19.48;76.67;100767.63;4891693;29;20083;-79
2023/06/18 06:52:39;;;;;;;10.45;9.45;;;;;;;19.50;75.96;100769.28;4877458;29;20037;-78
2023/06/18 06:55:06;;;;;;;11.00;9.52;;;;;;;19.58;75.56;100765.41;4903049;29;20041;-87
2023/06/18 06:57:32;;;;;;;11.85;10.65;;;;;;;19.63;75.02;100764.31;4877642;29;20140;-82
2023/06/18 06:59:59;;;;;;;11.73;10.57;;;;;;;19.63;74.53;100766.97;4886204;29;20138;-79
2023/06/18 07:02:26;;;;;;;11.95;9.75;;;;;;;19.71;74.23;100768.38;4888253;29;20135;-78
2023/06/18 07:04:52;;;;;;;10.38;9.27;;;;;;;19.83;73.98;100767.88;4907799;29;20047;-78
2023/06/18 07:07:18;;;;;;;9.80;8.88;;;;;;;20.02;72.79;100773.19;4891219;29;20041;-86
2023/06/18 07:09:45;;;;;;;10.75;9.55;;;;;;;20.19;71.98;100771.53;4892593;29;20040;-78
2023/06/18 07:12:11;;;;;;;9.60;8.70;;;;;;;20.31;71.44;100771.81;4886728;29;20048;-77
2023/06/18 07:14:38;;;;;;;10.35;8.65;;;;;;;20.45;70.74;100773.78;4881115;29;20075;-80
2023/06/18 07:17:04;;;;;;;11.20;9.95;;;;;;;20.55;70.03;100766.25;4893833;29;20483;-79
2023/06/18 07:19:31;;;;;;;9.00;8.20;;;;;;;20.61;69.53;100770.38;4894108;29;20064;-81
2023/06/18 07:21:57;;;;;;;9.45;8.55;;;;;;;20.74;68.72;100774.22;4887039;29;20468;-79
2023/06/18 07:24:24;;;;;;;12.15;9.10;;;;;;;20.97;67.80;100767.72;4902063;29;20136;-80
2023/06/18 07:26:50;;;;;;;11.15;9.13;;;;;;;21.29;65.86;100778.53;4889787;29;20048;-80
2023/06/18 07:29:17;;;;;;;10.15;8.60;;;;;;;21.75;64.73;100772.59;4896219;29;20032;-82
2023/06/18 07:31:43;;;;;;;9.57;7.95;;;;;;;22.27;62.08;100779.53;4897268;29;20040;-80
2023/06/18 07:34:10;;;;;;;11.52;9.40;;;;;;;22.91;60.13;100773.28;4880879;29;20052;-82
2023/06/18 07:36:39;;;;;;;12.07;9.10;;;;;;;23.49;57.70;100765.41;4877217;29;20092;-82
2023/06/18 07:39:05;;;;;;;10.18;8.52;;;;;;;23.94;55.61;100775.06;4904323;29;20664;-82
2023/06/18 07:41:32;;;;;;;8.45;7.72;;;;;;;24.43;53.06;100770.16;4877330;29;20088;-83
2023/06/18 07:43:59;;;;;;;9.30;7.97;;;;;;;24.88;51.85;100767.25;4878472;29;20320;-83
2023/06/18 07:46:25;;;;;;;9.32;8.45;;;;;;;25.37;50.17;100766.59;4889625;29;20127;-78
2023/06/18 07:48:52;;;;;;;9.07;8.23;;;;;;;25.78;49.32;100766.47;4910340;29;20043;-80
2023/06/18 07:51:19;;;;;;;8.18;7.35;;;;;;;25.89;48.09;100764.75;4896837;29;20049;-86
2023/06/18 07:53:46;;;;;;;7.97;7.32;;;;;;;26.36;46.93;100761.38;4887376;29;20087;-82
2023/06/18 07:56:13;;;;;;;10.13;9.23;;;;;;;26.71;45.91;100750.72;4894251;29;20066;-79
2023/06/18 07:58:39;;;;;;;9.40;8.50;;;;;;;27.00;45.00;100762.91;4894248;29;20036;-80
2023/06/18 08:01:06;;;;;;;8.15;7.30;;;;;;;27.32;45.13;100752.34;4902698;29;20054;-84
2023/06/18 08:03:32;;;;;;;7.97;7.25;;;;;;;28.05;44.21;100746.66;4892306;29;20051;-82
2023/06/18 08:05:59;;;;;;;10.38;9.13;;;;;;;28.65;42.58;100740.84;4905390;29;20052;-81
2023/06/18 08:08:25;;;;;;;9.63;7.95;;;;;;;28.99;41.08;100740.69;4878859;29;20503;-80
2023/06/18 08:10:52;;;;;;;8.52;7.93;;;;;;;29.13;41.39;100743.06;4898334;29;20040;-81
2023/06/18 08:13:18;;;;;;;8.40;7.13;;;;;;;29.45;40.24;100744.84;4879938;29;20536;-83
2023/06/18 08:15:45;;;;;;;6.75;6.25;;;;;;;29.45;40.03;100739.44;4897075;29;20066;-81
2023/06/18 08:18:11;;;;;;;8.30;7.53;;;;;;;29.70;39.01;100743.50;4909727;29;20551;-83
2023/06/18 08:20:38;;;;;;;8.20;6.15;;;;;;;30.12;37.28;100742.53;4893099;29;20052;-80
2023/06/18 08:23:04;;;;;;;8.60;6.32;;;;;;;30.45;37.43;100745.81;4889951;29;20036;-80
2023/06/18 08:25:31;;;;;;;7.38;6.72;;;;;;;30.94;36.53;100742.31;4893715;29;20480;-80
2023/06/18 08:27:58;;;;;;;6.85;5.97;;;;;;;30.76;35.46;100739.47;4879456;29;20136;-83
2023/06/18 08:30:25;;;;;;;6.75;6.25;;;;;;;31.22;35.52;100735.13;4896520;29;20040;-83
2023/06/18 08:32:54;;;;;;;7.85;7.10;;;;;;;31.47;34.55;100738.19;4894034;29;20043;-80
2023/06/18 08:35:21;;;;;;;7.57;6.88;;;;;;;31.38;35.07;100741.78;4895780;29;20056;-84
2023/06/18 08:37:47;;;;;;;10.82;7.30;;;;;;;31.77;34.45;100736.22;4906451;29;20495;-82
2023/06/18 08:40:15;;;;;;;6.95;6.35;;;;;;;32.18;33.32;100742.16;4893578;29;20036;-80
2023/06/18 08:42:42;;;;;;;7.95;7.22;;;;;;;32.49;32.22;100736.38;4893145;29;20049;-85
2023/06/18 08:45:08;;;;;;;7.13;6.53;;;;;;;32.08;31.71;100741.34;4887260;29;20143;-84
2023/06/18 08:47:36;;;;;;;6.93;6.40;;;;;;;32.08;32.12;100734.06;4895385;29;20399;-81
2023/06/18 08:50:02;;;;;;;5.80;5.40;;;;;;;32.43;31.99;100737.81;4895506;29;20044;-82
2023/06/18 08:52:30;;;;;;;6.57;6.13;;;;;;;32.69;31.32;100737.03;4875809;29;20043;-83
2023/06/18 08:55:02;;;;;;;6.47;5.53;;;;;;;33.20;30.28;100731.00;4888765;29;20037;-85
2023/06/18 08:57:41;;;;;;;6.20;5.55;;;;;;;33.87;29.18;100730.34;4895685;29;20074;-86
2023/06/18 09:00:09;;;;;;;5.93;5.50;;;;;;;34.62;28.56;100737.63;4893461;29;20043;-82
2023/06/18 09:02:36;;;;;;;7.18;5.68;;;;;;;34.62;28.10;100734.94;4877062;29;20055;-85
2023/06/18 09:05:03;;;;;;;6.60;5.97;;;;;;;34.68;27.06;100738.81;4892144;29;20120;-84
2023/06/18 09:07:30;;;;;;;6.00;5.50;;;;;;;34.45;27.85;100723.19;4905065;29;20373;-85
2023/06/18 09:09:57;;;;;;;6.35;5.85;;;;;;;34.28;27.09;100730.44;4893695;29;20059;-81
2023/06/18 09:12:24;;;;;;;6.53;5.80;;;;;;;33.81;27.66;100729.16;4894435;29;20448;-84
2023/06/18 09:14:53;;;;;;;6.00;5.57;;;;;;;33.99;27.34;100720.88;4892078;29;20053;-81
2023/06/18 09:17:19;;;;;;;5.75;5.35;;;;;;;34.31;27.79;100727.38;4888515;29;20043;-82
2023/06/18 09:19:48;;;;;;;6.03;5.57;;;;;;;35.04;27.18;100727.59;4876411;29;20056;-84
2023/06/18 09:22:17;;;;;;;8.52;7.00;;;;;;;35.46;26.71;100723.78;4893781;29;20648;-83
2023/06/18 09:24:44;;;;;;;6.20;5.65;;;;;;;35.21;26.61;100729.25;4880258;29;20088;-81
2023/06/18 09:27:11;;;;;;;6.60;5.97;;;;;;;36.04;25.62;100726.25;4893594;29;20060;-83
2023/06/18 09:29:42;;;;;;;7.18;6.50;;;;;;;36.65;25.45;100720.91;4890140;29;20037;-82
2023/06/18 09:32:12;;;;;;;6.55;6.05;;;;;;;36.99;24.52;100729.63;4893667;29;20053;-80
2023/06/18 09:34:40;;;;;;;6.43;5.93;;;;;;;36.00;25.14;100733.94;4888670;29;20055;-81
2023/06/18 09:37:08;;;;;;;6.80;6.28;;;;;;;36.15;25.10;100723.09;4907210;29;20047;-84
2023/06/18 09:39:38;;;;;;;6.90;6.18;;;;;;;36.49;25.04;100724.63;4893921;29;20468;-80
2023/06/18 09:42:13;;;;;;;6.45;6.03;;;;;;;36.48;25.10;100725.66;4908567;29;20127;-83
2023/06/18 09:44:41;;;;;;;5.70;5.25;;;;;;;37.07;24.65;100726.84;4896050;29;20040;-80
2023/06/18 09:47:12;;;;;;;5.82;5.43;;;;;;;37.64;22.53;100725.34;4892496;29;20048;-83
2023/06/18 09:49:39;;;;;;;6.90;5.70;;;;;;;38.04;22.59;100725.84;4904824;29;20041;-81
2023/06/18 09:52:08;;;;;;;5.85;5.30;;;;;;;38.09;22.27;100724.41;4907701;29;20045;-83
2023/06/18 09:54:44;;;;;;;6.40;5.80;;;;;;;38.77;20.84;100716.69;4890656;29;20167;-82
2023/06/18 09:57:13;;;;;;;6.18;5.68;;;;;;;38.68;21.34;100709.63;4902722;29;20044;-83
2023/06/18 09:59:40;;;;;;;7.10;6.43;;;;;;;37.78;22.50;100712.69;4888662;29;20131;-81
2023/06/18 10:02:09;;;;;;;6.50;5.68;;;;;;;38.33;22.50;100710.41;4894477;29;20453;-82
2023/06/18 10:04:35;;;;;;;5.47;4.97;;;;;;;38.70;21.80;100722.06;4890059;29;20068;-82
2023/06/18 10:07:15;;;;;;;6.32;5.82;;;;;;;38.57;20.94;100721.97;4893569;29;20112;-85
2023/06/18 10:09:45;;;;;;;5.38;4.88;;;;;;;38.70;20.84;100719.34;4894861;29;20051;-85
2023/06/18 10:12:15;;;;;;;5.60;5.07;;;;;;;38.80;19.31;100710.81;4890033;29;20051;-83
2023/06/18 10:14:41;;;;;;;5.05;4.75;;;;;;;38.68;20.33;100715.97;4877576;29;20088;-82
2023/06/18 10:17:32;;;;;;;4.72;4.43;;;;;;;39.25;19.22;100715.16;4897235;29;20037;-85
2023/06/18 10:20:04;;;;;;;4.72;4.43;;;;;;;39.25;19.82;100704.19;4891682;29;20147;-82
2023/06/18 10:22:50;;;;;;;5.50;5.10;;;;;;;39.21;19.84;100707.31;4900024;29;20053;-89
2023/06/18 10:25:17;;;;;;;4.97;4.47;;;;;;;39.74;19.33;100697.69;4899175;29;20053;-82
2023/06/18 10:27:44;;;;;;;5.22;4.82;;;;;;;40.15;18.83;100704.97;4890746;29;20033;-83
2023/06/18 10:30:12;;;;;;;4.32;4.03;;;;;;;40.45;18.66;100701.00;4911856;29;20055;-82
2023/06/18 10:32:40;;;;;;;4.55;4.25;;;;;;;40.76;18.01;100697.63;4908976;29;20052;-83
2023/06/18 10:35:12;;;;;;;12.90;11.77;;;;;;;40.71;18.02;100702.09;4891696;29;20041;-82
2023/06/18 10:37:40;;;;;;;5.32;5.03;;;;;;;40.84;18.07;100689.19;4887240;29;20433;-88
2023/06/18 10:40:10;;;;;;;7.55;5.15;;;;;;;40.85;17.65;100699.09;4903607;29;20021;-91
2023/06/18 10:42:36;;;;;;;4.85;4.45;;;;;;;41.19;17.58;100688.09;4890546;29;20153;-83
2023/06/18 10:45:16;;;;;;;5.45;4.95;;;;;;;40.49;18.11;100685.81;4924605;29;20047;-85
2023/06/18 10:47:44;;;;;;;5.35;5.05;;;;;;;40.21;18.64;100686.88;4905138;29;20047;-86
2023/06/18 10:50:16;;;;;;;4.68;4.38;;;;;;;40.04;18.60;100691.88;4887659;29;20048;-82
2023/06/18 10:52:49;;;;;;;5.03;4.63;;;;;;;39.98;19.03;100679.00;4875964;29;20057;-82
2023/06/18 10:55:21;;;;;;;5.07;4.68;;;;;;;39.73;19.02;100674.09;4899185;29;20056;-81
2023/06/18 10:58:00;;;;;;;5.18;4.68;;;;;;;39.70;18.42;100674.50;4890845;29;20511;-84
2023/06/18 11:00:34;;;;;;;6.00;5.63;;;;;;;40.00;18.28;100664.03;4902702;29;20047;-87
2023/06/18 11:03:35;;;;;;;4.95;4.65;;;;;;;40.43;18.15;100671.06;4906672;29;20033;-82
2023/06/18 11:06:03;;;;;;;7.05;5.72;;;;;;;39.89;18.01;100669.28;4906675;29;20036;-83
2023/06/18 11:08:34;;;;;;;4.90;4.60;;;;;;;40.44;18.92;100660.91;4907511;29;20048;-83
2023/06/18 11:11:13;;;;;;;;;;;;;;;41.27;16.10;100665.03;4895143;29;20053;-84
2023/06/18 11:13:41;;;;;;;4.10;3.90;;;;;;;41.24;17.68;100660.81;4890296;29;19969;-91
2023/06/18 11:16:09;;;;;;;4.57;4.28;;;;;;;41.91;16.95;100656.94;4916410;29;20033;-90
2023/06/18 11:18:36;;;;;;;4.35;4.05;;;;;;;42.05;17.27;100658.53;4907194;29;20040;-89